createdAt,value
2023-05-17T00:00:38.541Z,9.10
2023-05-17T00:03:05.599Z,18.80
2023-05-17T00:05:32.612Z,10.98
2023-05-17T00:08:01.001Z,10.50
2023-05-17T00:10:28.112Z,12.60
2023-05-17T00:12:55.054Z,16.60
2023-05-17T00:15:22.295Z,10.27
2023-05-17T00:17:49.321Z,13.00
2023-05-17T00:20:16.423Z,15.63
2023-05-17T00:22:45.783Z,8.93
2023-05-17T00:25:13.132Z,18.88
2023-05-17T00:27:40.188Z,13.68
2023-05-17T00:30:07.898Z,11.00
2023-05-17T00:32:37.513Z,12.18
2023-05-17T00:35:06.123Z,14.25
2023-05-17T00:37:34.317Z,16.13
2023-05-17T00:40:01.481Z,12.20
2023-05-17T00:42:28.474Z,18.85
2023-05-17T00:44:55.918Z,10.00
2023-05-17T00:47:23.186Z,11.82
2023-05-17T00:49:52.186Z,12.07
2023-05-17T00:52:19.494Z,22.02
2023-05-17T00:54:47.689Z,16.98
2023-05-17T00:57:15.703Z,16.80
2023-05-17T00:59:44.999Z,12.40
2023-05-17T01:02:12.451Z,10.02
2023-05-17T01:04:41.937Z,21.27
2023-05-17T01:07:09.974Z,17.35
2023-05-17T01:09:38.629Z,14.68
2023-05-17T01:12:25.362Z,17.88
2023-05-17T01:15:01.381Z,16.30
2023-05-17T01:17:41.380Z,13.45
2023-05-17T01:20:19.705Z,13.07
2023-05-17T01:23:11.737Z,12.40
2023-05-17T01:26:00.029Z,16.20
2023-05-17T01:28:29.641Z,17.00
2023-05-17T01:30:58.826Z,20.63
2023-05-17T01:33:26.486Z,11.02
2023-05-17T01:35:54.427Z,16.48
2023-05-17T01:38:21.461Z,18.95
2023-05-17T01:41:06.756Z,15.73
2023-05-17T01:43:52.791Z,14.40
2023-05-17T01:46:41.303Z,11.63
2023-05-17T01:49:35.324Z,17.77
2023-05-17T01:52:13.543Z,10.45
2023-05-17T01:54:53.244Z,15.88
2023-05-17T01:57:25.942Z,20.30
2023-05-17T01:59:53.540Z,15.15
2023-05-17T02:02:22.693Z,17.77
2023-05-17T02:04:51.668Z,14.27
2023-05-17T02:07:18.814Z,12.73
2023-05-17T02:09:46.655Z,13.27
2023-05-17T02:12:13.703Z,12.75
2023-05-17T02:14:41.967Z,17.42
2023-05-17T02:17:13.496Z,12.70
2023-05-17T02:19:41.652Z,17.20
2023-05-17T02:22:09.576Z,14.75
2023-05-17T02:24:36.642Z,11.70
2023-05-17T02:27:05.748Z,14.00
2023-05-17T02:29:33.020Z,15.80
2023-05-17T02:32:00.189Z,17.00
2023-05-17T02:34:27.571Z,14.85
2023-05-17T02:36:54.591Z,13.27
2023-05-17T02:39:21.853Z,11.48
2023-05-17T02:41:51.458Z,10.50
2023-05-17T02:44:18.493Z,14.35
2023-05-17T02:46:45.937Z,20.05
2023-05-17T02:49:13.265Z,19.65
2023-05-17T02:51:40.691Z,12.48
2023-05-17T02:54:09.933Z,13.98
2023-05-17T02:56:37.054Z,15.73
2023-05-17T02:59:04.346Z,20.73
2023-05-17T03:01:33.583Z,14.02
2023-05-17T03:04:02.398Z,19.80
2023-05-17T03:06:29.567Z,19.75
2023-05-17T03:08:56.646Z,21.48
2023-05-17T03:11:23.648Z,20.08
2023-05-17T03:13:51.900Z,16.83
2023-05-17T03:16:22.798Z,16.75
2023-05-17T03:18:51.835Z,18.92
2023-05-17T03:21:20.501Z,14.93
2023-05-17T03:23:48.851Z,17.23
2023-05-17T03:26:16.414Z,17.55
2023-05-17T03:28:48.264Z,22.05
2023-05-17T03:31:17.625Z,16.15
2023-05-17T03:36:13.402Z,17.42
2023-05-17T03:38:40.836Z,16.35
2023-05-17T03:41:08.148Z,16.65
2023-05-17T03:43:35.443Z,16.52
2023-05-17T03:46:02.524Z,13.32
2023-05-17T03:48:30.264Z,17.05
2023-05-17T03:50:57.636Z,18.27
2023-05-17T03:53:25.705Z,25.92
2023-05-17T03:55:52.920Z,16.98
2023-05-17T03:58:20.028Z,18.00
2023-05-17T04:00:47.174Z,19.05
2023-05-17T04:03:19.998Z,18.65
2023-05-17T04:05:47.415Z,13.82
2023-05-17T04:08:15.725Z,18.02
2023-05-17T04:10:44.923Z,15.23
2023-05-17T04:13:13.277Z,20.48
2023-05-17T04:15:40.653Z,21.20
2023-05-17T04:18:09.651Z,16.95
2023-05-17T04:20:36.697Z,16.58
2023-05-17T04:23:05.972Z,15.65
2023-05-17T04:25:38.729Z,26.35
2023-05-17T04:28:06.084Z,15.82
2023-05-17T04:30:34.393Z,17.90
2023-05-17T04:33:01.776Z,17.90
2023-05-17T04:35:29.225Z,21.02
2023-05-17T04:37:56.628Z,23.55
2023-05-17T04:40:23.827Z,19.42
2023-05-17T04:42:52.178Z,29.05
2023-05-17T04:45:20.467Z,23.48
2023-05-17T04:47:50.508Z,19.10
2023-05-17T04:50:17.911Z,20.85
2023-05-17T04:52:46.786Z,16.35
2023-05-17T04:55:14.122Z,21.27
2023-05-17T04:57:41.261Z,18.13
2023-05-17T05:00:10.550Z,16.17
2023-05-17T05:02:40.893Z,19.52
2023-05-17T05:05:11.979Z,20.45
2023-05-17T05:07:40.325Z,16.02
2023-05-17T05:10:10.181Z,20.55
2023-05-17T05:12:39.137Z,23.15
2023-05-17T05:15:07.121Z,16.83
2023-05-17T05:17:36.718Z,18.88
2023-05-17T05:20:04.571Z,24.20
2023-05-17T05:22:31.660Z,23.70
2023-05-17T05:25:02.589Z,16.23
2023-05-17T05:27:29.801Z,16.73
2023-05-17T05:29:56.930Z,23.75
2023-05-17T05:32:24.782Z,23.70
2023-05-17T05:34:51.897Z,18.75
2023-05-17T05:37:21.590Z,24.98
2023-05-17T05:39:48.686Z,22.77
2023-05-17T05:42:15.803Z,23.23
2023-05-17T05:44:42.915Z,27.63
2023-05-17T05:47:10.437Z,25.05
2023-05-17T05:49:38.080Z,25.75
2023-05-17T05:52:05.262Z,23.85
2023-05-17T05:54:33.385Z,20.95
2023-05-17T05:57:01.137Z,26.45
2023-05-17T05:59:28.555Z,23.77
2023-05-17T06:01:57.335Z,23.38
2023-05-17T06:04:36.266Z,22.38
2023-05-17T06:07:11.570Z,18.55
2023-05-17T06:09:38.639Z,19.88
2023-05-17T06:12:05.891Z,19.65
2023-05-17T06:14:32.919Z,21.25
2023-05-17T06:17:00.371Z,19.42
2023-05-17T06:19:27.515Z,24.52
2023-05-17T06:21:54.904Z,22.20
2023-05-17T06:24:21.982Z,23.48
2023-05-17T06:26:49.193Z,23.10
2023-05-17T06:29:17.089Z,21.98
2023-05-17T06:31:44.602Z,19.85
2023-05-17T06:34:12.665Z,17.92
2023-05-17T06:36:40.741Z,29.63
2023-05-17T06:39:08.744Z,16.20
2023-05-17T06:41:35.898Z,30.42
2023-05-17T06:44:02.857Z,26.23
2023-05-17T06:46:29.860Z,27.17
2023-05-17T06:48:57.238Z,28.92
2023-05-17T06:51:26.370Z,28.88
2023-05-17T06:53:54.494Z,16.63
2023-05-17T06:56:21.813Z,21.50
2023-05-17T06:58:48.784Z,26.92
2023-05-17T07:01:15.855Z,27.38
2023-05-17T07:03:43.631Z,19.15
2023-05-17T07:06:10.861Z,18.98
2023-05-17T07:08:37.998Z,20.80
2023-05-17T07:11:09.584Z,20.67
2023-05-17T07:13:36.583Z,15.00
2023-05-17T07:16:03.594Z,21.65
2023-05-17T07:18:31.395Z,19.05
2023-05-17T07:20:58.980Z,20.00
2023-05-17T07:23:26.220Z,22.17
2023-05-17T07:25:53.270Z,18.33
2023-05-17T07:28:20.486Z,22.40
2023-05-17T07:30:47.602Z,18.02
2023-05-17T07:33:14.766Z,19.75
2023-05-17T07:35:43.436Z,18.05
2023-05-17T07:38:10.887Z,16.58
2023-05-17T07:40:37.941Z,16.35
2023-05-17T07:43:06.185Z,16.08
2023-05-17T07:45:33.162Z,12.95
2023-05-17T07:48:00.340Z,20.83
2023-05-17T07:50:30.278Z,14.95
2023-05-17T07:52:58.421Z,17.75
2023-05-17T07:55:30.191Z,13.13
2023-05-17T07:57:57.403Z,13.57
2023-05-17T08:00:24.711Z,14.07
2023-05-17T08:02:54.704Z,17.60
2023-05-17T08:05:22.061Z,14.60
2023-05-17T08:07:52.442Z,13.23
2023-05-17T08:10:26.506Z,14.25
2023-05-17T08:12:55.577Z,15.90
2023-05-17T08:15:27.143Z,20.23
2023-05-17T08:17:54.961Z,18.27
2023-05-17T08:20:22.949Z,19.52
2023-05-17T08:22:50.239Z,15.38
2023-05-17T08:25:17.252Z,19.80
2023-05-17T08:27:47.771Z,13.75
2023-05-17T08:30:25.351Z,16.75
2023-05-17T08:32:58.849Z,17.35
2023-05-17T08:35:28.654Z,10.35
2023-05-17T08:37:56.344Z,12.43
2023-05-17T08:40:24.988Z,21.10
2023-05-17T08:42:53.069Z,16.25
2023-05-17T08:45:20.789Z,13.52
2023-05-17T08:47:49.294Z,19.52
2023-05-17T08:50:17.721Z,10.43
2023-05-17T08:52:46.608Z,18.33
2023-05-17T08:55:16.758Z,9.80
2023-05-17T08:57:47.141Z,12.32
2023-05-17T09:00:21.808Z,11.55
2023-05-17T09:02:49.564Z,11.45
2023-05-17T09:05:16.844Z,12.88
2023-05-17T09:07:45.113Z,15.90
2023-05-17T09:10:13.683Z,12.32
2023-05-17T09:12:42.507Z,15.10
2023-05-17T09:15:23.145Z,15.00
2023-05-17T09:17:56.911Z,13.75
2023-05-17T09:20:41.356Z,9.85
2023-05-17T09:23:10.883Z,10.77
2023-05-17T09:25:38.110Z,13.95
2023-05-17T09:28:07.913Z,12.20
2023-05-17T09:30:39.802Z,12.43
2023-05-17T09:33:12.428Z,12.73
2023-05-17T09:35:43.509Z,8.02
2023-05-17T09:38:14.333Z,11.95
2023-05-17T09:40:43.785Z,13.30
2023-05-17T09:43:14.675Z,10.15
2023-05-17T09:45:41.888Z,11.60
2023-05-17T09:48:17.203Z,11.20
2023-05-17T09:50:49.767Z,13.02
2023-05-17T09:53:27.599Z,11.90
2023-05-17T09:55:57.338Z,7.85
2023-05-17T09:58:26.121Z,8.88
2023-05-17T10:00:57.124Z,9.70
2023-05-17T10:03:27.238Z,12.70
2023-05-17T10:05:55.638Z,9.20
2023-05-17T10:08:23.737Z,5.82
2023-05-17T10:10:51.495Z,11.00
2023-05-17T10:13:25.039Z,7.82
2023-05-17T10:15:53.304Z,11.27
2023-05-17T10:18:21.827Z,11.30
2023-05-17T10:20:51.579Z,9.55
2023-05-17T10:23:18.914Z,11.52
2023-05-17T10:25:46.590Z,10.95
2023-05-17T10:28:16.999Z,13.45
2023-05-17T10:30:45.488Z,9.50
2023-05-17T10:33:14.844Z,12.85
2023-05-17T10:35:45.252Z,14.40
2023-05-17T10:38:12.570Z,8.65
2023-05-17T10:40:41.328Z,8.90
2023-05-17T10:43:10.506Z,10.90
2023-05-17T10:45:38.112Z,12.35
2023-05-17T10:48:07.263Z,9.48
2023-05-17T10:50:47.401Z,14.57
2023-05-17T10:53:27.054Z,13.15
2023-05-17T10:55:54.162Z,9.27
2023-05-17T10:58:21.484Z,10.70
2023-05-17T11:00:56.084Z,9.30
2023-05-17T11:03:30.623Z,9.23
2023-05-17T11:06:23.527Z,7.63
2023-05-17T11:09:17.615Z,8.57
2023-05-17T11:14:54.079Z,11.98
2023-05-17T11:17:27.033Z,8.65
2023-05-17T11:20:11.608Z,10.82
2023-05-17T11:22:51.230Z,9.00
2023-05-17T11:25:19.648Z,8.75
2023-05-17T11:27:50.166Z,9.88
2023-05-17T11:30:34.785Z,8.15
2023-05-17T11:33:17.336Z,9.35
2023-05-17T11:35:56.040Z,7.50
2023-05-17T11:38:27.661Z,15.70
2023-05-17T11:40:55.762Z,9.88
2023-05-17T11:43:31.249Z,12.52
2023-05-17T11:46:02.062Z,9.80
2023-05-17T11:48:32.891Z,11.77
2023-05-17T11:51:02.099Z,8.82
2023-05-17T11:53:32.352Z,9.27
2023-05-17T11:56:06.180Z,9.75
2023-05-17T11:58:33.934Z,11.38
2023-05-17T12:01:01.133Z,8.82
2023-05-17T12:03:29.372Z,6.57
2023-05-17T12:06:15.755Z,9.13
2023-05-17T12:08:47.156Z,9.93
2023-05-17T12:11:17.849Z,8.50
2023-05-17T12:13:47.556Z,7.82
2023-05-17T12:16:18.299Z,8.27
2023-05-17T12:18:52.378Z,11.50
2023-05-17T12:21:21.497Z,9.77
2023-05-17T12:23:53.656Z,4.32
2023-05-17T12:26:22.849Z,9.93
2023-05-17T12:28:58.754Z,7.40
2023-05-17T12:31:39.532Z,9.35
2023-05-17T12:34:07.208Z,10.85
2023-05-17T12:36:35.150Z,8.18
2023-05-17T12:39:03.395Z,7.10
2023-05-17T12:41:31.384Z,5.88
2023-05-17T12:44:13.636Z,7.70
2023-05-17T12:46:42.117Z,8.65
2023-05-17T12:49:11.255Z,9.75
2023-05-17T12:51:46.284Z,7.40
2023-05-17T12:54:18.898Z,10.23
2023-05-17T12:56:46.594Z,8.70
2023-05-17T12:59:26.084Z,9.90
2023-05-17T13:02:01.558Z,8.38
2023-05-17T13:04:34.111Z,9.13
2023-05-17T13:07:04.506Z,6.50
2023-05-17T13:09:33.029Z,7.70
2023-05-17T13:12:02.369Z,12.13
2023-05-17T13:14:45.675Z,5.35
2023-05-17T13:17:37.984Z,8.20
2023-05-17T13:20:10.579Z,9.30
2023-05-17T13:22:47.448Z,8.30
2023-05-17T13:25:15.951Z,7.90
2023-05-17T13:27:47.063Z,8.65
2023-05-17T13:30:15.804Z,10.52
2023-05-17T13:32:43.628Z,9.05
2023-05-17T13:35:11.340Z,7.13
2023-05-17T13:37:39.464Z,8.25
2023-05-17T13:40:07.290Z,4.78
2023-05-17T13:42:34.361Z,6.50
2023-05-17T13:45:04.301Z,7.90
2023-05-17T13:47:34.605Z,9.13
2023-05-17T13:50:04.860Z,4.70
2023-05-17T13:52:31.964Z,4.90
2023-05-17T13:54:59.025Z,4.70
2023-05-17T13:57:26.212Z,7.00
2023-05-17T13:59:53.225Z,7.28
2023-05-17T14:02:20.685Z,8.00
2023-05-17T14:04:49.236Z,6.68
2023-05-17T14:07:16.360Z,8.95
2023-05-17T14:09:44.911Z,5.63
2023-05-17T14:12:12.234Z,6.90
2023-05-17T14:14:39.218Z,7.18
2023-05-17T14:17:06.297Z,5.35
2023-05-17T14:19:33.563Z,6.97
2023-05-17T14:22:00.861Z,6.47
2023-05-17T14:24:27.972Z,5.63
2023-05-17T14:26:55.065Z,5.65
2023-05-17T14:29:22.089Z,6.85
2023-05-17T14:31:49.182Z,4.80
2023-05-17T14:34:17.565Z,7.68
2023-05-17T14:36:44.747Z,4.03
2023-05-17T14:39:13.363Z,5.13
2023-05-17T14:41:41.178Z,6.05
2023-05-17T14:44:10.856Z,5.60
2023-05-17T14:46:38.595Z,3.75
2023-05-17T14:49:07.113Z,5.95
2023-05-17T14:51:35.158Z,4.72
2023-05-17T14:54:02.278Z,6.03
2023-05-17T14:56:29.731Z,5.32
2023-05-17T14:58:56.999Z,5.90
2023-05-17T15:01:26.610Z,6.60
2023-05-17T15:03:54.752Z,7.65
2023-05-17T15:06:27.482Z,4.85
2023-05-17T15:08:55.043Z,5.28
2023-05-17T15:11:22.000Z,5.35
2023-05-17T15:13:50.873Z,8.13
2023-05-17T15:16:19.321Z,9.05
2023-05-17T15:18:46.480Z,6.40
2023-05-17T15:21:14.052Z,4.88
2023-05-17T15:23:43.117Z,6.95
2023-05-17T15:26:11.432Z,4.10
2023-05-17T15:28:38.402Z,6.88
2023-05-17T15:31:10.989Z,6.97
2023-05-17T15:33:45.027Z,5.70
2023-05-17T15:36:13.258Z,6.22
2023-05-17T15:38:40.240Z,4.45
2023-05-17T15:41:17.689Z,3.83
2023-05-17T15:43:45.868Z,7.35
2023-05-17T15:46:12.910Z,6.80
2023-05-17T15:48:40.213Z,5.35
2023-05-17T15:51:07.289Z,10.20
2023-05-17T15:53:35.048Z,11.35
2023-05-17T15:56:02.569Z,4.68
2023-05-17T15:58:33.569Z,4.72
2023-05-17T16:01:06.621Z,7.47
2023-05-17T16:03:34.962Z,6.00
2023-05-17T16:06:03.045Z,5.90
2023-05-17T16:08:31.347Z,6.60
2023-05-17T16:10:59.325Z,6.50
2023-05-17T16:13:30.074Z,7.55
2023-05-17T16:15:59.445Z,5.53
2023-05-17T16:18:27.157Z,5.35
2023-05-17T16:21:05.014Z,8.55
2023-05-17T16:23:33.409Z,8.48
2023-05-17T16:26:00.347Z,6.55
2023-05-17T16:28:28.517Z,3.15
2023-05-17T16:30:55.599Z,5.40
2023-05-17T16:33:23.413Z,5.43
2023-05-17T16:35:54.355Z,6.18
2023-05-17T16:38:22.037Z,3.67
2023-05-17T16:40:49.196Z,4.28
2023-05-17T16:43:16.560Z,5.85
2023-05-17T16:45:44.965Z,6.20
2023-05-17T16:48:15.402Z,6.40
2023-05-17T16:50:42.944Z,6.38
2023-05-17T16:53:09.949Z,5.32
2023-05-17T16:55:37.044Z,5.63
2023-05-17T16:58:05.129Z,6.60
2023-05-17T17:00:34.244Z,6.07
2023-05-17T17:03:01.890Z,5.60
2023-05-17T17:05:29.152Z,5.45
2023-05-17T17:07:57.800Z,5.38
2023-05-17T17:10:27.399Z,4.60
2023-05-17T17:12:54.552Z,6.88
2023-05-17T17:15:23.036Z,6.95
2023-05-17T17:17:50.167Z,4.78
2023-05-17T17:20:18.835Z,5.00
2023-05-17T17:22:47.324Z,5.80
2023-05-17T17:25:14.676Z,4.70
2023-05-17T17:27:42.281Z,7.72
2023-05-17T17:30:15.137Z,7.53
2023-05-17T17:32:42.231Z,4.55
2023-05-17T17:35:09.801Z,6.55
2023-05-17T17:37:36.874Z,5.20
2023-05-17T17:40:04.221Z,4.97
2023-05-17T17:42:32.513Z,8.77
2023-05-17T17:44:59.602Z,4.07
2023-05-17T17:47:27.620Z,6.47
2023-05-17T17:49:56.627Z,4.97
2023-05-17T17:52:23.655Z,10.45
2023-05-17T17:54:50.804Z,6.72
2023-05-17T17:57:20.417Z,9.45
2023-05-17T17:59:49.941Z,6.18
2023-05-17T18:02:16.970Z,9.05
2023-05-17T18:04:44.127Z,7.03
2023-05-17T18:07:12.967Z,11.23
2023-05-17T18:09:40.372Z,5.63
2023-05-17T18:12:09.561Z,7.88
2023-05-17T18:14:36.915Z,5.70
2023-05-17T18:17:04.362Z,5.82
2023-05-17T18:19:31.531Z,5.95
2023-05-17T18:21:58.523Z,8.63
2023-05-17T18:24:27.350Z,6.78
2023-05-17T18:26:57.938Z,8.07
2023-05-17T18:29:24.943Z,7.00
2023-05-17T18:31:52.230Z,7.05
2023-05-17T18:34:19.715Z,4.53
2023-05-17T18:36:47.029Z,4.75
2023-05-17T18:39:14.042Z,6.63
2023-05-17T18:41:41.301Z,4.43
2023-05-17T18:44:12.598Z,5.63
2023-05-17T18:46:41.527Z,7.07
2023-05-17T18:49:08.680Z,5.43
2023-05-17T18:51:37.188Z,9.65
2023-05-17T18:54:05.312Z,8.52
2023-05-17T18:56:33.065Z,5.95
2023-05-17T18:59:00.270Z,6.28
2023-05-17T19:01:30.731Z,6.43
2023-05-17T19:03:58.004Z,9.45
2023-05-17T19:06:27.649Z,5.03
2023-05-17T19:08:55.575Z,5.55
2023-05-17T19:11:22.912Z,11.20
2023-05-17T19:13:52.391Z,4.72
2023-05-17T19:16:22.666Z,9.38
2023-05-17T19:18:50.548Z,4.60
2023-05-17T19:21:18.274Z,6.90
2023-05-17T19:23:45.799Z,9.88
2023-05-17T19:26:12.928Z,8.32
2023-05-17T19:28:41.060Z,9.35
2023-05-17T19:31:08.805Z,7.25
2023-05-17T19:33:37.836Z,10.23
2023-05-17T19:36:05.002Z,7.57
2023-05-17T19:38:33.405Z,8.35
2023-05-17T19:41:01.665Z,5.82
2023-05-17T19:43:28.916Z,7.55
2023-05-17T19:45:56.051Z,10.75
2023-05-17T19:48:24.439Z,7.03
2023-05-17T19:50:56.114Z,8.07
2023-05-17T19:53:24.028Z,7.93
2023-05-17T19:55:50.950Z,7.20
2023-05-17T19:58:18.014Z,8.20
2023-05-17T20:00:48.984Z,7.45
2023-05-17T20:03:17.348Z,8.00
2023-05-17T20:05:49.547Z,7.53
2023-05-17T20:08:16.579Z,5.65
2023-05-17T20:10:43.766Z,7.97
2023-05-17T20:13:14.196Z,6.05
2023-05-17T20:15:41.297Z,8.75
2023-05-17T20:18:09.431Z,12.25
2023-05-17T20:20:37.983Z,8.23
2023-05-17T20:23:05.036Z,12.40
2023-05-17T20:25:32.546Z,8.00
2023-05-17T20:27:59.577Z,6.60
2023-05-17T20:30:28.615Z,9.52
2023-05-17T20:32:57.809Z,3.63
2023-05-17T20:35:26.407Z,7.68
2023-05-17T20:37:53.612Z,6.13
2023-05-17T20:40:22.338Z,7.97
2023-05-17T20:42:53.768Z,5.53
2023-05-17T20:45:23.147Z,5.30
2023-05-17T20:47:51.518Z,6.93
2023-05-17T20:50:20.860Z,5.40
2023-05-17T20:52:55.900Z,6.35
2023-05-17T20:55:23.426Z,9.00
2023-05-17T20:57:51.321Z,13.40
2023-05-17T21:00:21.327Z,9.98
2023-05-17T21:02:51.026Z,8.48
2023-05-17T21:05:18.526Z,9.60
2023-05-17T21:07:55.579Z,5.90
2023-05-17T21:10:23.278Z,10.27
2023-05-17T21:12:50.397Z,8.35
2023-05-17T21:15:18.602Z,10.35
2023-05-17T21:17:47.880Z,8.02
2023-05-17T21:20:15.306Z,14.10
2023-05-17T21:22:42.376Z,12.02
2023-05-17T21:25:10.246Z,9.02
2023-05-17T21:27:37.452Z,9.07
2023-05-17T21:30:06.212Z,8.27
2023-05-17T21:32:33.350Z,6.78
2023-05-17T21:35:02.870Z,8.45
2023-05-17T21:37:31.390Z,8.68
2023-05-17T21:39:58.497Z,6.28
2023-05-17T21:42:25.633Z,7.15
2023-05-17T21:44:52.887Z,10.77
2023-05-17T21:47:19.900Z,7.32
2023-05-17T21:49:46.885Z,11.50
2023-05-17T21:52:13.964Z,6.25
2023-05-17T21:54:41.589Z,6.53
2023-05-17T21:57:08.768Z,9.30
2023-05-17T21:59:36.058Z,6.88
2023-05-17T22:02:03.076Z,11.15
2023-05-17T22:04:31.151Z,9.40
2023-05-17T22:06:58.091Z,6.63
2023-05-17T22:09:25.086Z,12.52
2023-05-17T22:11:52.537Z,9.02
2023-05-17T22:14:20.264Z,6.38
2023-05-17T22:16:47.290Z,11.10
2023-05-17T22:19:14.524Z,8.88
2023-05-17T22:21:41.527Z,12.75
2023-05-17T22:24:08.632Z,13.75
2023-05-17T22:26:35.600Z,6.85
2023-05-17T22:29:02.716Z,10.00
2023-05-17T22:31:31.763Z,7.55
2023-05-17T22:33:59.087Z,15.60
2023-05-17T22:36:26.967Z,6.25
2023-05-17T22:38:54.009Z,11.07
2023-05-17T22:41:21.736Z,10.63
2023-05-17T22:43:48.837Z,14.32
2023-05-17T22:46:16.088Z,14.73
2023-05-17T22:48:43.092Z,6.70
2023-05-17T22:51:10.116Z,9.88
2023-05-17T22:53:37.082Z,9.02
2023-05-17T22:56:04.445Z,11.95
2023-05-17T22:58:31.703Z,11.00
2023-05-17T23:00:59.441Z,8.77
2023-05-17T23:03:27.323Z,6.90
2023-05-17T23:06:02.499Z,7.13
2023-05-17T23:08:31.315Z,12.38
2023-05-17T23:10:58.926Z,10.05
2023-05-17T23:13:26.472Z,8.70
2023-05-17T23:15:53.795Z,14.38
2023-05-17T23:18:21.311Z,12.10
2023-05-17T23:20:49.340Z,13.27
2023-05-17T23:23:16.613Z,8.82
2023-05-17T23:25:48.894Z,11.15
2023-05-17T23:30:46.649Z,12.32
2023-05-17T23:33:16.246Z,10.80
2023-05-17T23:35:43.289Z,11.75
2023-05-17T23:38:10.309Z,9.07
2023-05-17T23:40:37.468Z,11.73
2023-05-17T23:43:05.133Z,9.15
2023-05-17T23:45:33.203Z,14.55
2023-05-17T23:48:00.641Z,9.13
2023-05-17T23:50:28.237Z,11.32
2023-05-17T23:52:56.127Z,12.00
2023-05-17T23:55:23.273Z,7.78
2023-05-17T23:57:51.336Z,14.88
